YHYD weather

Hyden Airport
Western Australia, Australia

Public forecast

Using degrees Celsius for public forecast. Weather courtesy of forecast.io.

METAR (pilot weather report)

Closest report is Perth International Airport, 150.3 nm (278.3 km) W. Retrieved 2019/04/22 23:30 UTC (18 minutes ago):

YPPH 222330Z 06001KT CAVOK 14/06 Q1024 NOSIG

TAF (pilot weather forecast)

Closest forecast is Perth International Airport, 150.3 nm (278.3 km) W. Retrieved 2019/04/22 18:00 UTC (6 hours ago):

TAF YPPH 221706Z 2218/2324 20005KT CAVOK FM230000 09010KT CAVOK FM230600 21010KT CAVOK